Time;durP1;ratioP1;P1;durP2;ratioP2;P2;SDS_P1;SDS_P2;PMS_P1;PMS_P2;Temp;Humidity;BMP_temperature;BMP_pressure;BME280_temperature;BME280_humidity;BME280_pressure;Samples;Min_cycle;Max_cycle;Signal;HPM_P1;HPM_P2
2023/10/22 00:02:18;;;;;;;3.07;1.37;;;;;;;;;;5012207;28;20574;-53
2023/10/22 00:04:44;;;;;;;2.93;1.80;;;;;;;;;;5011909;28;20229;-53
2023/10/22 00:07:14;;;;;;;1.40;1.27;;;;;;;;;;5012145;28;20549;-53
2023/10/22 00:09:40;;;;;;;2.27;1.40;;;;;;;;;;5011890;28;20692;-53
2023/10/22 00:12:06;;;;;;;4.30;1.47;;;;;;;;;;5010780;28;20197;-53
2023/10/22 00:14:32;;;;;;;2.73;1.80;;;;;;;;;;5011989;28;20197;-53
2023/10/22 00:17:00;;;;;;;2.87;1.53;;;;;;;;;;5011935;28;20206;-53
2023/10/22 00:19:26;;;;;;;3.53;1.70;;;;;;;;;;5011687;28;20304;-53
2023/10/22 00:21:52;;;;;;;4.37;1.60;;;;;;;;;;5018348;28;20354;-53
2023/10/22 00:24:18;;;;;;;2.87;1.30;;;;;;;;;;5031140;28;20715;-53
2023/10/22 00:26:44;;;;;;;4.23;1.73;;;;;;;;;;5028523;28;20243;-53
2023/10/22 00:29:10;;;;;;;3.13;1.50;;;;;;;;;;5008185;28;20649;-53
2023/10/22 00:31:37;;;;;;;3.33;1.60;;;;;;;;;;5011570;28;20217;-52
2023/10/22 00:34:04;;;;;;;5.40;1.80;;;;;;;;;;5011870;28;20204;-52
2023/10/22 00:36:30;;;;;;;3.13;1.33;;;;;;;;;;5011770;28;20722;-52
2023/10/22 00:38:56;;;;;;;3.47;1.53;;;;;;;;;;5011697;28;20193;-52
2023/10/22 00:41:22;;;;;;;3.90;1.70;;;;;;;;;;5011533;28;20201;-52
2023/10/22 00:43:48;;;;;;;3.33;1.50;;;;;;;;;;5011504;28;20245;-53
2023/10/22 00:46:18;;;;;;;2.77;1.57;;;;;;;;;;5011744;28;20200;-50
2023/10/22 00:48:44;;;;;;;3.13;1.43;;;;;;;;;;5011584;28;20679;-52
2023/10/22 00:51:11;;;;;;;2.37;1.37;;;;;;;;;;5011566;28;20640;-53
2023/10/22 00:53:37;;;;;;;3.90;1.50;;;;;;;;;;5011510;28;20201;-53
2023/10/22 00:56:05;;;;;;;2.40;1.50;;;;;;;;;;5011731;28;20300;-53
2023/10/22 00:58:32;;;;;;;4.03;1.80;;;;;;;;;;5011465;28;20221;-53
2023/10/22 01:00:58;;;;;;;2.10;1.37;;;;;;;;;;5011748;28;20210;-52
2023/10/22 01:03:24;;;;;;;3.83;1.53;;;;;;;;;;5011347;28;20260;-52
2023/10/22 01:05:50;;;;;;;4.63;1.57;;;;;;;;;;5011369;28;20242;-53
2023/10/22 01:08:18;;;;;;;4.93;1.50;;;;;;;;;;5011590;28;20197;-52
2023/10/22 01:10:44;;;;;;;1.73;1.50;;;;;;;;;;5011543;28;20232;-53
2023/10/22 01:13:10;;;;;;;4.23;1.60;;;;;;;;;;5011410;28;20205;-53
2023/10/22 01:15:36;;;;;;;3.00;1.63;;;;;;;;;;5011301;28;20202;-53
2023/10/22 01:18:03;;;;;;;5.27;1.60;;;;;;;;;;5011391;28;20616;-53
2023/10/22 01:20:28;;;;;;;4.10;2.03;;;;;;;;;;5011331;28;20202;-53
2023/10/22 01:22:54;;;;;;;4.20;1.60;;;;;;;;;;5011764;28;20260;-52
2023/10/22 01:25:22;;;;;;;6.13;1.43;;;;;;;;;;5014846;28;20661;-53
2023/10/22 01:27:48;;;;;;;2.57;1.40;;;;;;;;;;5013116;28;20206;-53
2023/10/22 01:30:14;;;;;;;3.90;1.40;;;;;;;;;;5014868;28;20213;-53
2023/10/22 01:32:40;;;;;;;4.83;1.50;;;;;;;;;;5014578;28;20217;-53
2023/10/22 01:35:06;;;;;;;3.47;1.40;;;;;;;;;;5015033;28;20284;-52
2023/10/22 01:37:34;;;;;;;4.57;1.80;;;;;;;;;;5014670;28;20205;-53
2023/10/22 01:40:00;;;;;;;6.13;1.80;;;;;;;;;;5013118;28;20205;-52
2023/10/22 01:42:27;;;;;;;1.80;1.33;;;;;;;;;;5009201;28;20291;-52
2023/10/22 01:44:54;;;;;;;4.10;1.60;;;;;;;;;;5014258;28;20233;-53
2023/10/22 01:47:20;;;;;;;3.47;1.53;;;;;;;;;;5012817;28;20220;-52
2023/10/22 01:49:47;;;;;;;4.57;1.77;;;;;;;;;;5012902;28;20612;-52
2023/10/22 01:52:13;;;;;;;3.77;1.90;;;;;;;;;;5009601;28;20610;-52
2023/10/22 01:54:40;;;;;;;2.33;1.47;;;;;;;;;;5009171;28;20807;-51
2023/10/22 01:57:07;;;;;;;6.27;1.60;;;;;;;;;;5009378;28;20201;-52
2023/10/22 01:59:34;;;;;;;3.83;1.67;;;;;;;;;;5005804;28;20190;-51
2023/10/22 02:02:00;;;;;;;2.90;1.60;;;;;;;;;;5007572;28;20556;-51
2023/10/22 02:04:29;;;;;;;3.67;1.60;;;;;;;;;;5012375;28;20233;-51
2023/10/22 02:06:55;;;;;;;1.50;1.20;;;;;;;;;;5005640;28;20209;-51
2023/10/22 02:09:21;;;;;;;4.33;1.63;;;;;;;;;;5010918;28;20201;-51
2023/10/22 02:11:47;;;;;;;3.17;1.67;;;;;;;;;;5008885;28;20205;-51
2023/10/22 02:14:13;;;;;;;2.17;1.60;;;;;;;;;;5005740;28;20198;-51
2023/10/22 02:16:41;;;;;;;3.27;1.43;;;;;;;;;;5007010;28;20197;-52
2023/10/22 02:19:07;;;;;;;3.90;1.40;;;;;;;;;;5005506;28;20652;-51
2023/10/22 02:21:33;;;;;;;3.23;1.47;;;;;;;;;;5005418;28;20248;-51
2023/10/22 02:23:59;;;;;;;3.83;1.60;;;;;;;;;;5008627;28;20636;-51
2023/10/22 02:26:25;;;;;;;3.97;1.53;;;;;;;;;;5005060;28;20210;-51
2023/10/22 02:28:51;;;;;;;2.63;1.40;;;;;;;;;;5005222;28;20201;-51
2023/10/22 02:31:17;;;;;;;3.40;1.50;;;;;;;;;;5004319;28;20221;-51
2023/10/22 02:33:45;;;;;;;2.73;1.30;;;;;;;;;;5003539;28;20201;-51
2023/10/22 02:36:11;;;;;;;3.37;1.73;;;;;;;;;;5002413;28;20669;-51
2023/10/22 02:38:37;;;;;;;3.53;1.70;;;;;;;;;;5000730;28;20795;-51
2023/10/22 02:41:03;;;;;;;1.63;1.43;;;;;;;;;;5003423;28;20202;-50
2023/10/22 02:43:29;;;;;;;3.00;1.43;;;;;;;;;;4999779;28;20237;-51
2023/10/22 02:45:56;;;;;;;3.23;1.37;;;;;;;;;;5001747;28;20202;-51
2023/10/22 02:48:25;;;;;;;2.83;1.33;;;;;;;;;;5004947;28;20225;-51
2023/10/22 02:50:53;;;;;;;2.63;1.60;;;;;;;;;;4999990;28;20232;-51
2023/10/22 02:53:19;;;;;;;5.03;1.53;;;;;;;;;;5001433;28;20225;-51
2023/10/22 02:55:45;;;;;;;2.90;1.30;;;;;;;;;;5004812;28;20224;-51
2023/10/22 02:58:11;;;;;;;4.17;1.63;;;;;;;;;;5002943;28;20201;-51
2023/10/22 03:00:37;;;;;;;5.87;2.00;;;;;;;;;;5002823;28;20201;-51
2023/10/22 03:03:03;;;;;;;5.03;1.70;;;;;;;;;;5001182;28;20277;-51
2023/10/22 03:05:31;;;;;;;3.17;1.40;;;;;;;;;;5001295;28;20227;-51
2023/10/22 03:07:59;;;;;;;2.60;1.30;;;;;;;;;;4999318;28;20228;-51
2023/10/22 03:10:25;;;;;;;2.33;1.40;;;;;;;;;;5002841;28;20284;-52
2023/10/22 03:12:51;;;;;;;3.37;1.40;;;;;;;;;;5002625;28;20317;-51
2023/10/22 03:15:18;;;;;;;3.77;1.60;;;;;;;;;;5002720;28;20555;-51
2023/10/22 03:17:44;;;;;;;5.23;1.47;;;;;;;;;;5004229;28;20212;-51
2023/10/22 03:20:11;;;;;;;4.30;1.77;;;;;;;;;;5000920;28;20578;-51
2023/10/22 03:22:37;;;;;;;3.33;1.40;;;;;;;;;;5000781;28;20202;-51
2023/10/22 03:25:07;;;;;;;3.17;1.90;;;;;;;;;;5004168;28;20238;-51
2023/10/22 03:27:33;;;;;;;2.93;1.50;;;;;;;;;;4998984;28;20209;-51
2023/10/22 03:30:00;;;;;;;2.47;1.47;;;;;;;;;;5010920;28;20673;-51
2023/10/22 03:32:25;;;;;;;2.80;1.40;;;;;;;;;;5012432;28;20213;-51
2023/10/22 03:34:51;;;;;;;5.57;1.43;;;;;;;;;;5012351;28;20193;-51
2023/10/22 03:37:17;;;;;;;5.77;1.47;;;;;;;;;;5012685;28;20256;-51
2023/10/22 03:39:44;;;;;;;2.40;1.40;;;;;;;;;;5012723;28;20252;-51
2023/10/22 03:42:11;;;;;;;3.00;1.30;;;;;;;;;;5012187;28;20237;-51
2023/10/22 03:44:37;;;;;;;3.70;1.77;;;;;;;;;;5008875;28;20729;-51
2023/10/22 03:47:03;;;;;;;1.70;1.40;;;;;;;;;;4998683;28;20583;-51
2023/10/22 03:49:29;;;;;;;5.87;1.50;;;;;;;;;;5002242;28;20220;-51
2023/10/22 03:51:55;;;;;;;3.97;1.53;;;;;;;;;;5001991;28;20202;-51
2023/10/22 03:54:21;;;;;;;5.63;2.17;;;;;;;;;;5000315;28;20282;-51
2023/10/22 03:56:47;;;;;;;4.33;1.97;;;;;;;;;;5002072;28;20292;-51
2023/10/22 03:59:15;;;;;;;3.67;1.40;;;;;;;;;;4998689;28;20205;-51
2023/10/22 04:01:41;;;;;;;2.50;1.40;;;;;;;;;;5000203;28;20205;-51
2023/10/22 04:04:07;;;;;;;2.97;1.57;;;;;;;;;;4999136;28;20233;-51
2023/10/22 04:06:33;;;;;;;6.23;1.73;;;;;;;;;;5000314;28;20573;-51
2023/10/22 04:08:59;;;;;;;3.67;1.60;;;;;;;;;;4998502;28;20216;-51
2023/10/22 04:11:25;;;;;;;5.03;1.63;;;;;;;;;;4998516;28;20194;-52
2023/10/22 04:13:51;;;;;;;2.13;1.40;;;;;;;;;;5000156;28;20738;-51
2023/10/22 04:16:18;;;;;;;3.83;2.20;;;;;;;;;;5000279;28;20683;-52
2023/10/22 04:18:44;;;;;;;5.83;1.80;;;;;;;;;;5000049;28;20204;-51
2023/10/22 04:21:14;;;;;;;4.60;1.60;;;;;;;;;;4998337;28;20193;-52
2023/10/22 04:23:40;;;;;;;3.70;1.60;;;;;;;;;;5000018;28;20241;-51
2023/10/22 04:26:11;;;;;;;1.70;1.20;;;;;;;;;;4998268;28;20197;-51
2023/10/22 04:28:36;;;;;;;2.60;1.40;;;;;;;;;;4999908;28;20722;-51
2023/10/22 04:31:02;;;;;;;3.87;1.60;;;;;;;;;;4999940;28;20217;-51
2023/10/22 04:33:30;;;;;;;4.57;1.83;;;;;;;;;;4999923;28;20193;-50
2023/10/22 04:35:56;;;;;;;1.90;1.37;;;;;;;;;;4998125;28;20284;-51
2023/10/22 04:38:22;;;;;;;4.23;1.30;;;;;;;;;;4998248;28;20349;-50
2023/10/22 04:40:48;;;;;;;4.80;1.40;;;;;;;;;;4998104;28;20232;-51
2023/10/22 04:43:14;;;;;;;2.40;1.40;;;;;;;;;;4999786;28;20233;-50
2023/10/22 04:45:46;;;;;;;4.67;1.53;;;;;;;;;;4999904;28;20280;-51
2023/10/22 04:48:12;;;;;;;2.23;1.50;;;;;;;;;;4998104;28;20201;-51
2023/10/22 04:50:41;;;;;;;3.93;1.60;;;;;;;;;;4999696;28;20596;-52
2023/10/22 04:53:07;;;;;;;5.33;1.50;;;;;;;;;;4999770;28;20213;-51
2023/10/22 04:55:34;;;;;;;2.83;1.53;;;;;;;;;;4997979;28;20303;-51
2023/10/22 04:58:02;;;;;;;2.77;1.23;;;;;;;;;;5001963;28;20576;-51
2023/10/22 05:00:28;;;;;;;3.40;1.40;;;;;;;;;;5003608;28;20213;-51
2023/10/22 05:02:54;;;;;;;5.40;1.43;;;;;;;;;;5005143;28;20201;-52
2023/10/22 05:05:21;;;;;;;3.73;1.53;;;;;;;;;;5005131;28;20225;-51
2023/10/22 05:07:49;;;;;;;4.03;1.37;;;;;;;;;;5003126;28;20197;-51
2023/10/22 05:10:15;;;;;;;3.47;1.50;;;;;;;;;;5002066;28;20205;-51
2023/10/22 05:12:41;;;;;;;4.23;1.60;;;;;;;;;;5003217;28;20226;-51
2023/10/22 05:15:08;;;;;;;2.60;1.10;;;;;;;;;;5001518;28;20220;-51
2023/10/22 05:17:34;;;;;;;3.00;1.30;;;;;;;;;;5001646;28;20216;-51
2023/10/22 05:20:00;;;;;;;2.07;1.30;;;;;;;;;;5001660;28;20267;-51
2023/10/22 05:22:26;;;;;;;2.07;1.50;;;;;;;;;;5001407;28;20201;-51
2023/10/22 05:24:53;;;;;;;3.40;1.20;;;;;;;;;;5004676;28;20225;-51
2023/10/22 05:27:19;;;;;;;5.03;1.50;;;;;;;;;;5001282;28;20256;-51
2023/10/22 05:29:48;;;;;;;3.47;1.20;;;;;;;;;;5003291;28;20202;-51
2023/10/22 05:32:15;;;;;;;3.27;1.50;;;;;;;;;;5001852;28;20228;-52
2023/10/22 05:34:41;;;;;;;4.70;1.30;;;;;;;;;;5001289;28;20281;-51
2023/10/22 05:37:07;;;;;;;4.17;1.57;;;;;;;;;;5002999;28;20472;-51
2023/10/22 05:39:36;;;;;;;2.97;1.50;;;;;;;;;;5002584;28;20197;-52
2023/10/22 05:42:04;;;;;;;2.93;1.20;;;;;;;;;;5002658;28;20241;-51
2023/10/22 05:44:30;;;;;;;3.53;1.67;;;;;;;;;;5002887;28;20270;-52
2023/10/22 05:46:56;;;;;;;2.67;1.40;;;;;;;;;;5000967;28;20587;-51
2023/10/22 05:49:22;;;;;;;1.40;1.10;;;;;;;;;;5001062;28;20181;-52
2023/10/22 05:51:50;;;;;;;4.00;1.80;;;;;;;;;;5002818;28;20197;-52
2023/10/22 05:54:16;;;;;;;3.17;1.40;;;;;;;;;;5000924;28;20193;-51
2023/10/22 05:56:42;;;;;;;2.80;1.30;;;;;;;;;;5000996;28;20216;-51
2023/10/22 05:59:10;;;;;;;2.27;1.30;;;;;;;;;;5002355;28;20667;-51
2023/10/22 06:01:41;;;;;;;3.23;1.60;;;;;;;;;;5002441;28;20221;-51
2023/10/22 06:04:07;;;;;;;3.83;1.27;;;;;;;;;;5000524;28;20252;-51
2023/10/22 06:06:33;;;;;;;5.30;1.83;;;;;;;;;;5002123;28;20206;-51
2023/10/22 06:08:59;;;;;;;2.70;1.30;;;;;;;;;;4999160;28;20196;-52
2023/10/22 06:11:25;;;;;;;4.03;1.40;;;;;;;;;;5001216;28;20556;-52
2023/10/22 06:13:51;;;;;;;2.50;1.40;;;;;;;;;;5000317;28;20194;-52
2023/10/22 06:16:19;;;;;;;4.43;1.30;;;;;;;;;;5000682;28;20264;-52
2023/10/22 06:18:46;;;;;;;2.70;1.53;;;;;;;;;;5000799;28;20206;-51
2023/10/22 06:21:12;;;;;;;3.63;1.50;;;;;;;;;;5002181;28;20197;-51
2023/10/22 06:23:38;;;;;;;2.67;1.47;;;;;;;;;;5002124;28;20256;-51
2023/10/22 06:26:04;;;;;;;6.07;1.30;;;;;;;;;;5000140;28;20587;-51
2023/10/22 06:28:31;;;;;;;1.90;1.20;;;;;;;;;;5000352;28;20704;-51
2023/10/22 06:31:03;;;;;;;5.27;1.43;;;;;;;;;;5000015;28;20242;-52
2023/10/22 06:33:30;;;;;;;2.70;1.40;;;;;;;;;;5000287;28;20209;-52
2023/10/22 06:35:57;;;;;;;2.63;1.50;;;;;;;;;;5000002;28;20575;-52
2023/10/22 06:38:23;;;;;;;2.93;1.47;;;;;;;;;;5001728;28;20652;-52
2023/10/22 06:40:49;;;;;;;2.63;1.33;;;;;;;;;;4999835;28;20203;-52
2023/10/22 06:43:15;;;;;;;2.47;1.30;;;;;;;;;;5003192;28;20252;-52
2023/10/22 06:45:41;;;;;;;3.90;1.90;;;;;;;;;;5000063;28;20209;-52
2023/10/22 06:48:07;;;;;;;1.67;1.37;;;;;;;;;;4999821;28;20209;-52
2023/10/22 06:50:35;;;;;;;3.43;1.30;;;;;;;;;;5003396;28;20205;-52
2023/10/22 06:53:01;;;;;;;6.97;1.67;;;;;;;;;;5001325;28;21080;-51
2023/10/22 06:55:27;;;;;;;2.77;1.40;;;;;;;;;;5001348;28;20291;-52
2023/10/22 06:57:53;;;;;;;6.27;3.63;;;;;;;;;;4999545;28;20224;-52
2023/10/22 07:00:19;;;;;;;3.70;1.47;;;;;;;;;;5001571;28;20664;-52
2023/10/22 07:02:46;;;;;;;3.60;1.40;;;;;;;;;;4999601;28;20201;-53
2023/10/22 07:05:12;;;;;;;2.43;1.50;;;;;;;;;;5001285;28;20778;-52
2023/10/22 07:07:41;;;;;;;2.03;1.30;;;;;;;;;;5001196;28;20206;-52
2023/10/22 07:10:09;;;;;;;4.07;1.63;;;;;;;;;;5001067;28;20213;-52
2023/10/22 07:12:35;;;;;;;1.73;1.10;;;;;;;;;;4999508;28;20217;-52
2023/10/22 07:15:01;;;;;;;3.30;1.60;;;;;;;;;;4999328;28;20202;-52
2023/10/22 07:17:27;;;;;;;4.53;1.50;;;;;;;;;;5000976;28;20197;-52
2023/10/22 07:19:53;;;;;;;4.80;1.60;;;;;;;;;;5000759;28;20672;-52
2023/10/22 07:22:19;;;;;;;2.57;1.27;;;;;;;;;;4998828;28;20201;-52
2023/10/22 07:24:49;;;;;;;2.67;1.40;;;;;;;;;;5001021;28;20210;-52
2023/10/22 07:27:15;;;;;;;2.73;1.67;;;;;;;;;;4999386;28;20205;-52
2023/10/22 07:29:41;;;;;;;3.40;1.37;;;;;;;;;;4999089;28;20276;-52
2023/10/22 07:32:07;;;;;;;4.57;1.60;;;;;;;;;;4998884;28;20248;-52
2023/10/22 07:34:33;;;;;;;2.97;1.43;;;;;;;;;;5000936;28;20272;-52
2023/10/22 07:37:00;;;;;;;6.00;1.50;;;;;;;;;;5000755;28;20652;-52
2023/10/22 07:39:26;;;;;;;2.07;1.47;;;;;;;;;;4997214;28;20764;-52
2023/10/22 07:41:53;;;;;;;2.63;1.27;;;;;;;;;;4998674;28;20248;-57
2023/10/22 07:44:19;;;;;;;3.50;1.30;;;;;;;;;;5000513;28;20225;-51
2023/10/22 07:46:45;;;;;;;3.87;1.70;;;;;;;;;;4999566;28;20193;-50
2023/10/22 07:49:11;;;;;;;2.37;1.40;;;;;;;;;;4998706;28;20640;-53
2023/10/22 07:51:37;;;;;;;3.60;1.20;;;;;;;;;;4998749;28;20232;-53
2023/10/22 07:54:04;;;;;;;3.10;1.30;;;;;;;;;;5000444;28;20244;-53
2023/10/22 07:56:30;;;;;;;1.93;1.13;;;;;;;;;;4998670;28;20652;-53
2023/10/22 07:58:57;;;;;;;2.90;1.20;;;;;;;;;;5002016;28;20200;-58
2023/10/22 08:01:23;;;;;;;2.20;1.37;;;;;;;;;;4998495;28;20229;-53
2023/10/22 08:03:50;;;;;;;2.30;1.20;;;;;;;;;;4998530;28;20731;-48
2023/10/22 08:06:16;;;;;;;1.97;1.30;;;;;;;;;;5000250;28;20285;-50
2023/10/22 08:08:42;;;;;;;1.97;1.00;;;;;;;;;;4998487;28;20196;-51
2023/10/22 08:11:08;;;;;;;2.30;1.20;;;;;;;;;;4998463;28;20197;-50
2023/10/22 08:13:35;;;;;;;2.60;1.27;;;;;;;;;;4998442;28;20722;-50
2023/10/22 08:16:04;;;;;;;2.80;1.20;;;;;;;;;;4998465;28;20198;-51
2023/10/22 08:18:30;;;;;;;1.93;1.07;;;;;;;;;;4998634;28;20225;-50
2023/10/22 08:21:00;;;;;;;3.67;1.40;;;;;;;;;;4998307;28;20208;-51
2023/10/22 08:23:26;;;;;;;3.97;1.30;;;;;;;;;;4998223;28;20695;-50
2023/10/22 08:25:53;;;;;;;3.57;1.30;;;;;;;;;;5001619;28;20205;-51
2023/10/22 08:28:19;;;;;;;3.27;1.60;;;;;;;;;;4998375;28;20251;-50
2023/10/22 08:30:45;;;;;;;3.20;0.90;;;;;;;;;;5003419;28;20647;-51
2023/10/22 08:33:13;;;;;;;3.50;1.10;;;;;;;;;;5012621;28;20672;-51
2023/10/22 08:35:39;;;;;;;2.83;1.43;;;;;;;;;;5015823;28;20206;-51
2023/10/22 08:38:06;;;;;;;1.73;1.07;;;;;;;;;;5015836;28;20198;-51
2023/10/22 08:40:33;;;;;;;2.03;1.20;;;;;;;;;;5010715;28;20572;-51
2023/10/22 08:43:00;;;;;;;3.00;1.20;;;;;;;;;;5002002;28;20245;-52
2023/10/22 08:45:26;;;;;;;2.90;1.23;;;;;;;;;;5002012;28;20233;-51
2023/10/22 08:47:52;;;;;;;2.50;1.00;;;;;;;;;;5001952;28;20252;-51
2023/10/22 08:50:20;;;;;;;3.33;1.50;;;;;;;;;;5001978;28;20205;-52
2023/10/22 08:52:46;;;;;;;1.63;1.40;;;;;;;;;;5003855;28;20205;-51
2023/10/22 08:55:12;;;;;;;2.60;1.33;;;;;;;;;;5001785;28;20197;-51
2023/10/22 08:57:38;;;;;;;1.80;1.40;;;;;;;;;;5002114;28;20567;-52
2023/10/22 09:00:09;;;;;;;2.53;2.13;;;;;;;;;;5001807;28;20576;-50
2023/10/22 09:02:36;;;;;;;5.33;4.07;;;;;;;;;;5015355;28;20229;-51
2023/10/22 09:05:02;;;;;;;2.37;1.90;;;;;;;;;;5015302;28;20225;-50
2023/10/22 09:07:46;;;;;;;1.93;1.50;;;;;;;;;;5015334;28;20541;-51
2023/10/22 09:10:23;;;;;;;1.43;1.30;;;;;;;;;;5014774;28;20204;-52
2023/10/22 09:12:49;;;;;;;1.90;1.40;;;;;;;;;;5014981;28;20276;-52
2023/10/22 09:15:15;;;;;;;1.77;1.50;;;;;;;;;;5014941;28;20284;-53
2023/10/22 09:17:43;;;;;;;2.63;1.40;;;;;;;;;;5015201;28;20209;-52
2023/10/22 09:20:20;;;;;;;3.30;1.80;;;;;;;;;;5015177;28;20224;-52
2023/10/22 09:22:46;;;;;;;3.03;1.50;;;;;;;;;;5015460;28;20193;-52
2023/10/22 09:25:12;;;;;;;2.47;2.00;;;;;;;;;;5014978;28;20392;-52
2023/10/22 09:27:40;;;;;;;2.43;1.60;;;;;;;;;;5015173;28;20664;-52
2023/10/22 09:30:06;;;;;;;4.17;1.53;;;;;;;;;;5015025;28;20664;-52
2023/10/22 09:32:32;;;;;;;2.90;1.60;;;;;;;;;;5014961;28;20703;-52
2023/10/22 09:35:11;;;;;;;2.30;1.57;;;;;;;;;;5015059;28;20208;-52
2023/10/22 09:37:48;;;;;;;2.10;1.43;;;;;;;;;;5015028;28;20240;-52
2023/10/22 09:40:18;;;;;;;3.10;1.57;;;;;;;;;;5014824;28;20275;-52
2023/10/22 09:42:47;;;;;;;2.70;1.47;;;;;;;;;;5012751;28;20233;-52
2023/10/22 09:45:14;;;;;;;2.50;1.20;;;;;;;;;;5013889;28;20726;-53
2023/10/22 09:47:40;;;;;;;1.00;0.87;;;;;;;;;;5014359;28;20198;-54
2023/10/22 09:50:12;;;;;;;2.63;1.40;;;;;;;;;;5014208;28;20289;-54
2023/10/22 09:52:42;;;;;;;1.70;1.33;;;;;;;;;;5014269;28;20215;-52
2023/10/22 09:55:12;;;;;;;2.20;1.00;;;;;;;;;;5014136;28;20200;-53
2023/10/22 09:57:40;;;;;;;2.73;1.00;;;;;;;;;;5014184;28;20230;-53
2023/10/22 10:00:10;;;;;;;1.40;1.00;;;;;;;;;;5014071;28;20197;-53
2023/10/22 10:02:36;;;;;;;4.13;0.90;;;;;;;;;;5014089;28;20201;-53
2023/10/22 10:05:03;;;;;;;1.23;1.13;;;;;;;;;;5014024;28;20292;-52
2023/10/22 10:07:29;;;;;;;2.20;1.30;;;;;;;;;;5014417;28;20206;-53
2023/10/22 10:09:55;;;;;;;1.27;1.17;;;;;;;;;;5013907;28;20235;-52
2023/10/22 10:12:24;;;;;;;2.03;1.20;;;;;;;;;;5013703;28;20220;-52
2023/10/22 10:14:50;;;;;;;1.67;1.30;;;;;;;;;;5013806;28;20201;-52
2023/10/22 10:17:18;;;;;;;2.07;1.37;;;;;;;;;;5013762;28;20203;-52
2023/10/22 10:19:47;;;;;;;3.53;1.03;;;;;;;;;;5013793;28;20199;-52
2023/10/22 10:22:36;;;;;;;2.60;1.10;;;;;;;;;;5013511;28;20779;-52
2023/10/22 10:25:17;;;;;;;2.40;1.10;;;;;;;;;;5013826;28;20229;-52
2023/10/22 10:27:50;;;;;;;1.57;1.40;;;;;;;;;;5013428;28;20585;-52
2023/10/22 10:30:17;;;;;;;3.37;1.50;;;;;;;;;;5013763;28;20206;-52
2023/10/22 10:32:46;;;;;;;3.83;1.40;;;;;;;;;;5013526;28;20209;-52
2023/10/22 10:35:12;;;;;;;2.57;1.40;;;;;;;;;;5013460;28;20286;-52
2023/10/22 10:37:38;;;;;;;2.93;1.40;;;;;;;;;;5013481;28;20236;-52
2023/10/22 10:40:06;;;;;;;1.93;1.30;;;;;;;;;;5013348;28;20208;-52
2023/10/22 10:42:48;;;;;;;2.00;1.40;;;;;;;;;;5013289;28;20616;-52
2023/10/22 10:45:18;;;;;;;1.40;1.20;;;;;;;;;;5013208;28;20245;-52
2023/10/22 10:47:46;;;;;;;2.00;1.50;;;;;;;;;;5013307;28;20563;-52
2023/10/22 10:50:12;;;;;;;2.33;1.30;;;;;;;;;;5013122;28;20209;-52
2023/10/22 10:52:57;;;;;;;4.70;1.60;;;;;;;;;;5013107;28;20560;-52
2023/10/22 10:55:32;;;;;;;1.93;1.73;;;;;;;;;;5012555;28;20277;-52
2023/10/22 10:57:59;;;;;;;2.67;1.43;;;;;;;;;;5013025;28;20289;-52
2023/10/22 11:00:32;;;;;;;2.73;1.30;;;;;;;;;;5012969;28;20568;-52
2023/10/22 11:03:01;;;;;;;3.47;1.83;;;;;;;;;;5012786;28;20201;-52
2023/10/22 11:05:31;;;;;;;2.43;1.60;;;;;;;;;;5012582;28;20269;-52
2023/10/22 11:07:57;;;;;;;2.17;1.40;;;;;;;;;;5013040;28;20204;-52
2023/10/22 11:10:23;;;;;;;2.13;1.33;;;;;;;;;;5012640;28;20232;-52
2023/10/22 11:12:51;;;;;;;2.17;1.37;;;;;;;;;;5012768;28;20747;-52
2023/10/22 11:15:17;;;;;;;1.80;1.47;;;;;;;;;;5012691;28;20672;-53
2023/10/22 11:17:43;;;;;;;1.97;1.40;;;;;;;;;;5012742;28;20204;-53
2023/10/22 11:20:13;;;;;;;2.50;1.40;;;;;;;;;;5012361;28;20233;-53
2023/10/22 11:22:39;;;;;;;1.63;1.30;;;;;;;;;;5012646;28;20190;-51
2023/10/22 11:25:07;;;;;;;2.63;1.57;;;;;;;;;;5012396;28;20260;-51
2023/10/22 11:27:34;;;;;;;1.53;1.43;;;;;;;;;;5012527;28;20273;-51
2023/10/22 11:30:00;;;;;;;2.03;1.50;;;;;;;;;;5012649;28;20201;-52
2023/10/22 11:32:26;;;;;;;2.90;1.73;;;;;;;;;;5012248;28;20224;-51
2023/10/22 11:34:53;;;;;;;1.70;1.27;;;;;;;;;;5012298;28;20513;-51
2023/10/22 11:37:21;;;;;;;2.90;1.57;;;;;;;;;;5012303;28;20197;-51
2023/10/22 11:39:47;;;;;;;2.83;1.30;;;;;;;;;;5012413;28;20572;-51
2023/10/22 11:42:14;;;;;;;1.30;1.20;;;;;;;;;;5012183;28;20237;-54
2023/10/22 11:44:43;;;;;;;3.03;1.27;;;;;;;;;;5012082;28;20666;-51
2023/10/22 11:47:25;;;;;;;2.33;1.23;;;;;;;;;;5010581;28;20297;-53
2023/10/22 11:49:51;;;;;;;3.17;1.50;;;;;;;;;;4998826;28;20564;-53
2023/10/22 11:52:18;;;;;;;1.80;1.10;;;;;;;;;;4999003;28;20207;-53
2023/10/22 11:54:45;;;;;;;3.13;1.30;;;;;;;;;;4998714;28;20201;-53
2023/10/22 11:57:13;;;;;;;2.90;1.27;;;;;;;;;;4998473;28;20206;-53
2023/10/22 11:59:39;;;;;;;1.13;1.03;;;;;;;;;;5000169;28;20207;-53
2023/10/22 12:02:05;;;;;;;1.57;1.20;;;;;;;;;;4998566;28;20220;-53
2023/10/22 12:04:31;;;;;;;3.10;0.93;;;;;;;;;;4998515;28;20233;-53
2023/10/22 12:06:57;;;;;;;1.70;1.20;;;;;;;;;;4998354;28;20671;-52
2023/10/22 12:09:23;;;;;;;1.20;1.10;;;;;;;;;;4998241;28;20608;-53
2023/10/22 12:11:53;;;;;;;4.93;1.37;;;;;;;;;;4998242;28;20658;-53
2023/10/22 12:14:19;;;;;;;3.80;1.20;;;;;;;;;;4998145;28;20203;-53
2023/10/22 12:16:45;;;;;;;1.50;1.20;;;;;;;;;;4998427;28;20206;-53
2023/10/22 12:19:11;;;;;;;2.40;1.20;;;;;;;;;;4998433;28;20197;-51
2023/10/22 12:21:37;;;;;;;2.10;1.20;;;;;;;;;;4998331;28;20262;-51
2023/10/22 12:24:03;;;;;;;2.70;1.10;;;;;;;;;;4998201;28;20658;-52
2023/10/22 12:26:29;;;;;;;1.43;1.30;;;;;;;;;;4998256;28;20208;-52
2023/10/22 12:28:57;;;;;;;3.97;1.30;;;;;;;;;;4999943;28;20198;-51
2023/10/22 12:31:23;;;;;;;4.63;1.77;;;;;;;;;;4999568;28;20400;-51
2023/10/22 12:33:49;;;;;;;2.07;1.07;;;;;;;;;;4998439;28;20210;-51
2023/10/22 12:36:15;;;;;;;2.23;1.63;;;;;;;;;;4998174;28;20511;-51
2023/10/22 12:38:41;;;;;;;3.87;1.93;;;;;;;;;;4996443;28;20734;-52
2023/10/22 12:41:07;;;;;;;1.90;1.70;;;;;;;;;;4999622;28;20605;-52
2023/10/22 12:43:33;;;;;;;2.40;1.40;;;;;;;;;;4998053;28;20238;-52
2023/10/22 12:46:04;;;;;;;3.10;1.33;;;;;;;;;;4998378;28;20227;-52
2023/10/22 12:48:30;;;;;;;1.27;1.07;;;;;;;;;;4997962;28;20702;-52
2023/10/22 12:50:56;;;;;;;2.03;1.40;;;;;;;;;;4998056;28;20615;-52
2023/10/22 12:53:22;;;;;;;3.33;1.30;;;;;;;;;;4997825;28;20193;-52
2023/10/22 12:55:52;;;;;;;3.77;1.30;;;;;;;;;;4998395;28;20194;-52
2023/10/22 12:58:18;;;;;;;2.97;1.20;;;;;;;;;;4998098;28;20216;-52
2023/10/22 13:00:45;;;;;;;1.20;1.10;;;;;;;;;;4997879;28;20559;-52
2023/10/22 13:03:13;;;;;;;1.90;1.10;;;;;;;;;;4997911;28;20208;-52
2023/10/22 13:05:39;;;;;;;1.90;1.53;;;;;;;;;;4997694;28;20747;-52
2023/10/22 13:08:07;;;;;;;3.07;1.60;;;;;;;;;;4997820;28;20268;-52
2023/10/22 13:10:33;;;;;;;2.20;1.20;;;;;;;;;;4997856;28;20718;-51
2023/10/22 13:12:59;;;;;;;1.17;0.90;;;;;;;;;;4999525;28;20209;-51
2023/10/22 13:15:25;;;;;;;2.67;1.10;;;;;;;;;;4997879;28;20288;-52
2023/10/22 13:17:51;;;;;;;1.73;1.03;;;;;;;;;;4999815;28;20233;-52
2023/10/22 13:20:19;;;;;;;2.17;0.97;;;;;;;;;;5001616;28;20229;-52
2023/10/22 13:22:45;;;;;;;3.00;1.07;;;;;;;;;;5002556;28;20673;-53
2023/10/22 13:25:11;;;;;;;1.37;1.00;;;;;;;;;;5013031;28;20225;-53
2023/10/22 13:27:37;;;;;;;3.07;1.00;;;;;;;;;;5014637;28;20248;-52
2023/10/22 13:30:04;;;;;;;2.30;1.00;;;;;;;;;;5014785;28;20297;-53
2023/10/22 13:32:30;;;;;;;1.03;0.83;;;;;;;;;;5014646;28;20217;-53
2023/10/22 13:34:57;;;;;;;1.27;1.00;;;;;;;;;;5014798;28;20843;-52
2023/10/22 13:37:24;;;;;;;0.93;0.80;;;;;;;;;;5014640;28;20203;-53
2023/10/22 13:39:50;;;;;;;2.20;0.73;;;;;;;;;;5014586;28;20283;-53
2023/10/22 13:42:16;;;;;;;1.13;0.80;;;;;;;;;;5014556;28;20671;-53
2023/10/22 13:44:43;;;;;;;0.93;0.80;;;;;;;;;;5014329;28;20266;-52
2023/10/22 13:47:10;;;;;;;4.40;0.90;;;;;;;;;;5014324;28;20601;-52
2023/10/22 13:49:37;;;;;;;1.40;0.80;;;;;;;;;;5014215;28;20207;-53
2023/10/22 13:52:04;;;;;;;1.53;1.03;;;;;;;;;;5014447;28;20224;-52
2023/10/22 13:54:32;;;;;;;1.13;0.93;;;;;;;;;;5014424;28;20199;-52
2023/10/22 13:56:58;;;;;;;1.70;1.00;;;;;;;;;;5014256;28;20674;-53
2023/10/22 13:59:24;;;;;;;1.60;1.23;;;;;;;;;;5014159;28;20209;-52
2023/10/22 14:01:50;;;;;;;2.57;1.10;;;;;;;;;;5014054;28;20203;-53
2023/10/22 14:04:16;;;;;;;1.63;0.97;;;;;;;;;;5014179;28;20756;-53
2023/10/22 14:06:42;;;;;;;1.07;0.90;;;;;;;;;;5013986;28;20293;-53
2023/10/22 14:09:10;;;;;;;1.90;0.87;;;;;;;;;;5013900;28;20341;-53
2023/10/22 14:11:38;;;;;;;1.20;0.97;;;;;;;;;;5014125;28;20609;-53
2023/10/22 14:14:04;;;;;;;1.37;1.07;;;;;;;;;;5014003;28;20202;-53
2023/10/22 14:16:30;;;;;;;1.33;0.90;;;;;;;;;;5013986;28;20206;-53
2023/10/22 14:18:56;;;;;;;2.93;1.10;;;;;;;;;;5013724;28;20560;-53
2023/10/22 14:21:23;;;;;;;1.13;0.87;;;;;;;;;;5012539;28;20208;-53
2023/10/22 14:23:49;;;;;;;1.27;1.17;;;;;;;;;;5013659;28;20280;-52
2023/10/22 14:26:15;;;;;;;2.27;1.07;;;;;;;;;;5013617;28;20710;-53
2023/10/22 14:28:42;;;;;;;1.60;0.83;;;;;;;;;;5013522;28;20201;-53
2023/10/22 14:31:08;;;;;;;2.10;0.90;;;;;;;;;;5012369;28;20226;-52
2023/10/22 14:33:35;;;;;;;2.27;1.00;;;;;;;;;;5013896;28;20204;-53
2023/10/22 14:36:01;;;;;;;3.03;1.20;;;;;;;;;;5013754;28;20190;-53
2023/10/22 14:38:27;;;;;;;2.60;0.90;;;;;;;;;;5013196;28;20233;-51
2023/10/22 14:40:53;;;;;;;0.77;0.67;;;;;;;;;;5013379;28;20195;-53
2023/10/22 14:43:19;;;;;;;0.80;0.80;;;;;;;;;;5013299;28;20246;-53